Hauptseite
METAR-TAF:

METAR-TAF

Flughäfen :

New Castle, Pennsylvania, Vereinigte Staaten

Breite: 41-01-31N, Länge: 080-24-48W, Höhe: 326 m

Beobachtung

Neuester Wetterbericht von vor 9 Minuten, um 22:31 UTC
Wind 3 kt aus Süd/Südwest
Temperatur 11°C
Luftfeuchtigkeit 100%
Luftdruck 1002 hPa
Sichtweite: 4.8 km
Aufgelockert bewölkt in der Höhe von 600 ft
Durchbrochene Bewölkung in der Höhe von 1200 ft
Geschlossene Wolkendecke in der Höhe von 1800 ft
Leichtregen, feuchter Dunst

METAR: KUCP 092231Z AUTO 21003KT 3SM -RA BR SCT006 BKN012 OVC018 11/11 A2958 RMK AO2 P0002

Zeit: 17:40 (22:40 UTC)


TAF: fehlend

Wetterbeobachtungen und Prognosen von mehr als 4000 Flughäfen (METAR und TAF Bericht).

Die verfügbaren Stationen werden durch gelbe und rote Markierungen auf der Karte dargestellt.

Führen Sie die Maus auf sie, um den Namen der Station zu sehen.

Darauf klicken, um die Beobachtung von Wetterbeobachtungen und Prognosen zu sehen.

Um die Karte zu ändern : klicken Sie auf den grünen Tasten mit einem schwarzen Kreuz Zum Vergrößern, auf den grünen Button mit einem Gedankenstrich zu verkleinern, oder auf die grünen Pfeile für benachbarte Karten.


METAR-TAF: